Time;durP1;ratioP1;P1;durP2;ratioP2;P2;SDS_P1;SDS_P2;PMS_P1;PMS_P2;Temp;Humidity;BMP_temperature;BMP_pressure;BME280_temperature;BME280_humidity;BME280_pressure;Samples;Min_cycle;Max_cycle;Signal;HPM_P1;HPM_P2
2021/08/01 00:00:20;;;;;;;13.18;7.95;;;;;;;;;;1505429;39;20030;-61
2021/08/01 00:01:21;;;;;;;10.55;7.38;;;;;;;;;;1505506;39;20022;-61
2021/08/01 00:02:24;;;;;;;11.55;7.50;;;;;;;;;;1505524;39;20027;-61
2021/08/01 00:03:25;;;;;;;12.38;8.32;;;;;;;;;;1505452;39;20022;-61
2021/08/01 00:04:27;;;;;;;12.80;7.68;;;;;;;;;;1505472;39;20023;-59
2021/08/01 00:05:28;;;;;;;14.27;7.78;;;;;;;;;;1505448;39;20046;-61
2021/08/01 00:06:31;;;;;;;11.32;8.07;;;;;;;;;;1505532;39;20027;-61
2021/08/01 00:07:33;;;;;;;14.23;8.30;;;;;;;;;;1505418;39;20382;-61
2021/08/01 00:08:35;;;;;;;12.45;7.85;;;;;;;;;;1505656;39;20054;-61
2021/08/01 00:09:36;;;;;;;12.73;8.27;;;;;;;;;;1505431;39;20373;-61
2021/08/01 00:10:38;;;;;;;18.17;8.05;;;;;;;;;;1505566;39;20031;-61
2021/08/01 00:11:39;;;;;;;16.17;8.30;;;;;;;;;;1505367;39;20030;-61
2021/08/01 00:12:42;;;;;;;16.98;8.50;;;;;;;;;;1505378;39;20055;-60
2021/08/01 00:13:43;;;;;;;12.63;8.18;;;;;;;;;;1505444;39;20019;-61
2021/08/01 00:14:45;;;;;;;15.23;7.90;;;;;;;;;;1505434;39;20059;-61
2021/08/01 00:15:46;;;;;;;13.50;7.82;;;;;;;;;;1505469;39;20025;-61
2021/08/01 00:16:48;;;;;;;12.77;7.93;;;;;;;;;;1505446;39;20297;-61
2021/08/01 00:17:50;;;;;;;11.48;7.85;;;;;;;;;;1505356;39;20019;-61
2021/08/01 00:18:52;;;;;;;15.52;7.93;;;;;;;;;;1505433;39;20029;-61
2021/08/01 00:19:53;;;;;;;11.95;7.47;;;;;;;;;;1505351;39;20293;-59
2021/08/01 00:20:55;;;;;;;13.57;8.20;;;;;;;;;;1505412;39;20033;-59
2021/08/01 00:21:56;;;;;;;12.75;8.23;;;;;;;;;;1505310;39;20022;-59
2021/08/01 00:22:58;;;;;;;15.20;7.63;;;;;;;;;;1500612;39;20030;-60
2021/08/01 00:23:59;;;;;;;11.77;7.82;;;;;;;;;;1500659;39;20095;-59
2021/08/01 00:25:01;;;;;;;13.10;7.82;;;;;;;;;;1505411;39;20410;-61
2021/08/01 00:26:02;;;;;;;11.23;7.72;;;;;;;;;;1505425;39;20023;-61
2021/08/01 00:27:05;;;;;;;12.35;7.55;;;;;;;;;;1505409;39;20274;-59
2021/08/01 00:28:05;;;;;;;13.15;7.68;;;;;;;;;;1505438;39;20374;-61
2021/08/01 00:29:07;;;;;;;12.18;7.75;;;;;;;;;;1505438;39;20019;-62
2021/08/01 00:30:10;;;;;;;13.32;7.88;;;;;;;;;;1505261;39;20396;-61
2021/08/01 00:31:11;;;;;;;15.57;8.23;;;;;;;;;;1505567;39;20050;-61
2021/08/01 00:32:12;;;;;;;15.75;8.48;;;;;;;;;;1505441;39;20030;-60
2021/08/01 00:33:15;;;;;;;11.77;7.70;;;;;;;;;;1505432;39;20292;-61
2021/08/01 00:34:16;;;;;;;12.80;7.15;;;;;;;;;;1505299;39;20030;-60
2021/08/01 00:35:18;;;;;;;10.93;7.60;;;;;;;;;;1505381;39;20019;-60
2021/08/01 00:36:21;;;;;;;13.35;7.97;;;;;;;;;;1505277;39;20022;-61
2021/08/01 00:37:23;;;;;;;12.63;7.45;;;;;;;;;;1505361;39;20394;-61
2021/08/01 00:38:24;;;;;;;12.02;7.25;;;;;;;;;;1505275;39;20476;-60
2021/08/01 00:39:26;;;;;;;10.25;7.55;;;;;;;;;;1505325;39;20130;-62
2021/08/01 00:40:27;;;;;;;10.27;7.50;;;;;;;;;;1505376;39;20027;-59
2021/08/01 00:41:28;;;;;;;14.68;7.82;;;;;;;;;;1505438;39;20316;-61
2021/08/01 00:42:29;;;;;;;13.63;7.80;;;;;;;;;;1505368;39;20267;-61
2021/08/01 00:43:32;;;;;;;12.63;8.18;;;;;;;;;;1505285;39;20033;-61
2021/08/01 00:44:33;;;;;;;14.05;8.35;;;;;;;;;;1505244;39;20022;-62
2021/08/01 00:45:37;;;;;;;12.98;7.90;;;;;;;;;;1505416;39;20282;-60
2021/08/01 00:46:40;;;;;;;14.27;7.90;;;;;;;;;;1505338;39;20110;-61
2021/08/01 00:47:43;;;;;;;12.70;7.82;;;;;;;;;;1505250;39;20038;-60
2021/08/01 00:48:45;;;;;;;16.52;8.00;;;;;;;;;;1505273;39;20285;-61
2021/08/01 00:49:47;;;;;;;14.18;8.15;;;;;;;;;;1505850;39;20293;-60
2021/08/01 00:50:48;;;;;;;13.07;8.07;;;;;;;;;;1506092;39;20026;-61
2021/08/01 00:51:50;;;;;;;12.63;7.93;;;;;;;;;;1505956;39;20093;-61
2021/08/01 00:52:51;;;;;;;13.77;8.07;;;;;;;;;;1505963;39;20019;-60
2021/08/01 00:53:53;;;;;;;12.05;7.15;;;;;;;;;;1506073;39;20066;-61
2021/08/01 00:54:56;;;;;;;14.35;7.82;;;;;;;;;;1506040;39;20030;-61
2021/08/01 00:55:58;;;;;;;15.30;8.15;;;;;;;;;;1506048;39;20254;-60
2021/08/01 00:57:01;;;;;;;15.05;8.07;;;;;;;;;;1506062;39;20026;-61
2021/08/01 00:58:02;;;;;;;16.63;7.65;;;;;;;;;;1506020;39;20289;-60
2021/08/01 00:59:03;;;;;;;16.75;7.97;;;;;;;;;;1506013;39;20022;-61
2021/08/01 01:00:13;;;;;;;12.77;7.53;;;;;;;;;;1505975;39;20043;-61
2021/08/01 01:01:18;;;;;;;13.98;7.45;;;;;;;;;;1506067;39;20055;-61
2021/08/01 01:02:25;;;;;;;17.70;8.02;;;;;;;;;;1505929;39;20030;-60
2021/08/01 01:03:29;;;;;;;16.92;8.00;;;;;;;;;;1506157;39;20031;-61
2021/08/01 01:04:47;;;;;;;15.25;7.47;;;;;;;;;;1506110;39;20038;-61
2021/08/01 01:05:55;;;;;;;15.35;8.15;;;;;;;;;;1506016;39;20382;-61
2021/08/01 01:07:05;;;;;;;12.55;7.53;;;;;;;;;;1505996;39;20030;-61
2021/08/01 01:08:14;;;;;;;13.88;7.68;;;;;;;;;;1506013;39;20026;-60
2021/08/01 01:09:21;;;;;;;14.52;7.90;;;;;;;;;;1506129;39;20034;-61
2021/08/01 01:10:28;;;;;;;9.80;7.40;;;;;;;;;;1506002;39;20294;-61
2021/08/01 01:11:34;;;;;;;14.38;7.90;;;;;;;;;;1506037;39;20030;-62
2021/08/01 01:12:39;;;;;;;14.65;8.10;;;;;;;;;;1506065;39;20037;-61
2021/08/01 01:13:46;;;;;;;12.02;7.40;;;;;;;;;;1506125;39;20038;-60
2021/08/01 01:14:50;;;;;;;15.50;7.60;;;;;;;;;;1506149;39;20034;-61
2021/08/01 01:15:56;;;;;;;16.63;7.50;;;;;;;;;;1505949;39;20034;-61
2021/08/01 01:17:02;;;;;;;12.98;7.47;;;;;;;;;;1506035;39;20030;-62
2021/08/01 01:18:06;;;;;;;13.73;7.45;;;;;;;;;;1505975;39;20107;-61
2021/08/01 01:19:11;;;;;;;12.02;7.68;;;;;;;;;;1501133;39;20019;-60
2021/08/01 01:20:37;;;;;;;16.35;8.35;;;;;;;;;;1501577;39;20035;-60
2021/08/01 01:21:51;;;;;;;17.23;8.52;;;;;;;;;;1505986;39;20274;-61
2021/08/01 01:23:14;;;;;;;17.08;8.38;;;;;;;;;;1505908;39;20019;-60
2021/08/01 01:24:19;;;;;;;14.80;7.70;;;;;;;;;;1506009;39;20343;-61
2021/08/01 01:25:29;;;;;;;13.48;8.13;;;;;;;;;;1505918;39;20026;-61
2021/08/01 01:26:36;;;;;;;14.77;7.63;;;;;;;;;;1505847;39;20026;-61
2021/08/01 01:27:42;;;;;;;13.73;7.78;;;;;;;;;;1505891;39;20023;-62
2021/08/01 01:28:52;;;;;;;12.85;8.10;;;;;;;;;;1505993;39;20405;-61
2021/08/01 01:29:58;;;;;;;14.52;7.82;;;;;;;;;;1505961;39;20038;-61
2021/08/01 01:31:08;;;;;;;15.77;8.02;;;;;;;;;;1506080;39;20038;-61
2021/08/01 01:32:14;;;;;;;13.85;8.02;;;;;;;;;;1505994;39;20122;-61
2021/08/01 01:33:19;;;;;;;15.25;7.93;;;;;;;;;;1505939;39;20023;-61
2021/08/01 01:34:28;;;;;;;12.00;7.50;;;;;;;;;;1505859;39;20433;-62
2021/08/01 01:35:36;;;;;;;15.40;8.00;;;;;;;;;;1505989;39;20035;-61
2021/08/01 01:36:40;;;;;;;12.30;7.22;;;;;;;;;;1505930;39;20098;-61
2021/08/01 01:37:43;;;;;;;14.48;7.45;;;;;;;;;;1505899;39;20376;-61
2021/08/01 01:38:45;;;;;;;12.02;7.82;;;;;;;;;;1505915;39;20087;-61
2021/08/01 01:39:48;;;;;;;12.00;7.72;;;;;;;;;;1506029;39;20030;-61
2021/08/01 01:40:53;;;;;;;11.77;7.68;;;;;;;;;;1505929;39;20364;-61
2021/08/01 01:41:56;;;;;;;10.90;7.25;;;;;;;;;;1506149;39;20054;-61
2021/08/01 01:42:58;;;;;;;14.93;7.70;;;;;;;;;;1505886;39;20023;-60
2021/08/01 01:44:00;;;;;;;15.05;7.57;;;;;;;;;;1505904;39;20039;-61
2021/08/01 01:45:02;;;;;;;14.30;7.93;;;;;;;;;;1505815;39;20023;-60
2021/08/01 01:46:04;;;;;;;13.40;8.00;;;;;;;;;;1505872;39;20027;-61
2021/08/01 01:47:06;;;;;;;14.80;8.15;;;;;;;;;;1505951;39;20018;-59
2021/08/01 01:48:08;;;;;;;12.68;7.72;;;;;;;;;;1505986;39;20030;-61
2021/08/01 01:49:11;;;;;;;18.00;8.38;;;;;;;;;;1505900;39;20030;-61
2021/08/01 01:50:16;;;;;;;12.40;8.02;;;;;;;;;;1505846;39;20401;-61
2021/08/01 01:51:18;;;;;;;9.90;7.95;;;;;;;;;;1505831;39;20289;-61
2021/08/01 01:52:23;;;;;;;16.08;8.38;;;;;;;;;;1506062;39;20090;-59
2021/08/01 01:53:24;;;;;;;13.07;8.23;;;;;;;;;;1506060;39;20046;-61
2021/08/01 01:54:26;;;;;;;14.48;8.75;;;;;;;;;;1505949;39;20043;-60
2021/08/01 01:55:29;;;;;;;16.15;8.73;;;;;;;;;;1505712;39;20416;-61
2021/08/01 01:56:34;;;;;;;14.52;8.93;;;;;;;;;;1505822;39;20014;-61
2021/08/01 01:57:36;;;;;;;12.95;8.10;;;;;;;;;;1505708;39;20022;-61
2021/08/01 01:58:38;;;;;;;14.40;8.77;;;;;;;;;;1505944;39;20107;-61
2021/08/01 01:59:39;;;;;;;15.27;8.43;;;;;;;;;;1505723;39;20022;-62
2021/08/01 02:00:41;;;;;;;13.07;8.50;;;;;;;;;;1505851;39;20046;-60
2021/08/01 02:01:42;;;;;;;12.00;8.30;;;;;;;;;;1505894;39;20027;-61
2021/08/01 02:02:44;;;;;;;16.65;8.75;;;;;;;;;;1505755;39;20019;-61
2021/08/01 02:03:45;;;;;;;18.52;9.40;;;;;;;;;;1505848;39;20030;-61
2021/08/01 02:04:47;;;;;;;12.75;9.00;;;;;;;;;;1506320;39;20034;-61
2021/08/01 02:05:48;;;;;;;16.15;8.50;;;;;;;;;;1506483;39;20026;-60
2021/08/01 02:06:49;;;;;;;12.65;8.25;;;;;;;;;;1506558;39;20023;-61
2021/08/01 02:07:52;;;;;;;12.98;8.02;;;;;;;;;;1506288;39;20031;-59
2021/08/01 02:09:00;;;;;;;13.63;8.82;;;;;;;;;;1506424;39;20022;-61
2021/08/01 02:10:07;;;;;;;14.23;8.57;;;;;;;;;;1506331;39;20031;-61
2021/08/01 02:11:10;;;;;;;14.57;8.40;;;;;;;;;;1506574;39;20390;-61
2021/08/01 02:12:17;;;;;;;16.70;9.02;;;;;;;;;;1506264;39;20018;-60
2021/08/01 02:13:23;;;;;;;16.52;9.05;;;;;;;;;;1506302;39;20018;-61
2021/08/01 02:14:28;;;;;;;16.30;8.88;;;;;;;;;;1506290;39;20022;-61
2021/08/01 02:15:33;;;;;;;18.38;9.10;;;;;;;;;;1506439;39;20063;-60
2021/08/01 02:16:39;;;;;;;14.88;8.98;;;;;;;;;;1505999;39;20023;-60
2021/08/01 02:17:45;;;;;;;18.52;9.02;;;;;;;;;;1505778;39;20023;-59
2021/08/01 02:18:52;;;;;;;13.88;8.55;;;;;;;;;;1505915;39;20034;-59
2021/08/01 02:19:54;;;;;;;14.43;8.60;;;;;;;;;;1505691;39;20030;-59
2021/08/01 02:20:57;;;;;;;13.25;8.23;;;;;;;;;;1505872;39;20374;-60
2021/08/01 02:21:58;;;;;;;16.50;9.30;;;;;;;;;;1505872;39;20019;-61
2021/08/01 02:23:02;;;;;;;17.27;8.55;;;;;;;;;;1505844;39;20309;-59
2021/08/01 02:24:05;;;;;;;14.18;8.35;;;;;;;;;;1505799;39;20023;-60
2021/08/01 02:25:08;;;;;;;14.70;8.30;;;;;;;;;;1505882;39;20023;-59
2021/08/01 02:26:11;;;;;;;13.63;8.77;;;;;;;;;;1505678;39;20018;-60
2021/08/01 02:27:13;;;;;;;17.40;8.68;;;;;;;;;;1505826;39;20394;-59
2021/08/01 02:28:15;;;;;;;15.20;8.10;;;;;;;;;;1505724;39;20023;-59
2021/08/01 02:29:18;;;;;;;13.10;8.18;;;;;;;;;;1505671;39;20343;-59
2021/08/01 02:30:19;;;;;;;14.55;8.30;;;;;;;;;;1505758;39;20045;-59
2021/08/01 02:31:22;;;;;;;15.18;8.50;;;;;;;;;;1505712;39;20313;-59
2021/08/01 02:32:23;;;;;;;10.68;8.32;;;;;;;;;;1505694;39;20026;-59
2021/08/01 02:33:27;;;;;;;13.98;8.63;;;;;;;;;;1505789;39;20095;-61
2021/08/01 02:34:29;;;;;;;16.63;8.85;;;;;;;;;;1505793;39;20298;-59
2021/08/01 02:35:32;;;;;;;13.57;8.75;;;;;;;;;;1505694;39;20106;-59
2021/08/01 02:36:34;;;;;;;11.40;8.82;;;;;;;;;;1505718;39;20258;-59
2021/08/01 02:37:36;;;;;;;14.60;9.15;;;;;;;;;;1505724;39;20026;-59
2021/08/01 02:38:40;;;;;;;12.63;8.95;;;;;;;;;;1505627;39;20015;-60
2021/08/01 02:39:43;;;;;;;15.45;9.10;;;;;;;;;;1500806;39;20310;-59
2021/08/01 02:40:45;;;;;;;13.35;9.15;;;;;;;;;;1501046;39;20137;-59
2021/08/01 02:41:48;;;;;;;10.52;8.90;;;;;;;;;;1505954;39;20050;-59
2021/08/01 02:42:50;;;;;;;16.42;8.90;;;;;;;;;;1505758;39;20023;-59
2021/08/01 02:43:53;;;;;;;13.77;8.90;;;;;;;;;;1505761;39;20030;-61
2021/08/01 02:44:57;;;;;;;14.55;8.93;;;;;;;;;;1505687;39;20293;-59
2021/08/01 02:46:00;;;;;;;16.27;9.45;;;;;;;;;;1505850;39;20026;-61
2021/08/01 02:47:04;;;;;;;12.77;8.43;;;;;;;;;;1505626;39;20022;-61
2021/08/01 02:48:09;;;;;;;13.45;8.48;;;;;;;;;;1505713;39;20381;-59
2021/08/01 02:49:16;;;;;;;15.40;8.80;;;;;;;;;;1505882;39;20034;-61
2021/08/01 02:50:19;;;;;;;15.48;8.90;;;;;;;;;;1505657;39;20029;-60
2021/08/01 02:51:21;;;;;;;15.77;9.35;;;;;;;;;;1505652;39;20034;-59
2021/08/01 02:52:28;;;;;;;15.43;9.52;;;;;;;;;;1505702;39;20034;-59
2021/08/01 02:53:34;;;;;;;13.10;9.38;;;;;;;;;;1505725;39;20401;-60
2021/08/01 02:54:40;;;;;;;17.95;9.73;;;;;;;;;;1505787;39;20034;-60
2021/08/01 02:55:43;;;;;;;19.25;9.52;;;;;;;;;;1505763;39;20064;-59
2021/08/01 02:56:46;;;;;;;14.75;9.45;;;;;;;;;;1505711;39;20030;-59
2021/08/01 02:57:49;;;;;;;13.70;8.98;;;;;;;;;;1505628;39;20033;-59
2021/08/01 02:58:52;;;;;;;14.18;9.20;;;;;;;;;;1505735;39;20019;-59
2021/08/01 02:59:54;;;;;;;18.27;9.82;;;;;;;;;;1505564;39;20049;-59
2021/08/01 03:00:57;;;;;;;15.65;9.38;;;;;;;;;;1505704;39;20318;-60
2021/08/01 03:02:00;;;;;;;14.05;9.05;;;;;;;;;;1505652;39;20026;-59
2021/08/01 03:03:02;;;;;;;14.52;8.95;;;;;;;;;;1505737;39;20285;-60
2021/08/01 03:04:04;;;;;;;17.67;9.60;;;;;;;;;;1505649;39;20018;-59
2021/08/01 03:05:07;;;;;;;16.05;9.68;;;;;;;;;;1505817;39;20102;-59
2021/08/01 03:06:09;;;;;;;15.50;9.32;;;;;;;;;;1505529;39;20064;-61
2021/08/01 03:07:12;;;;;;;17.73;10.38;;;;;;;;;;1505756;39;20102;-59
2021/08/01 03:08:14;;;;;;;18.30;10.20;;;;;;;;;;1505762;39;20018;-61
2021/08/01 03:09:16;;;;;;;13.75;9.35;;;;;;;;;;1505708;39;20322;-61
2021/08/01 03:10:18;;;;;;;16.48;9.85;;;;;;;;;;1505529;39;20030;-59
2021/08/01 03:11:21;;;;;;;17.42;9.05;;;;;;;;;;1505661;39;20050;-59
2021/08/01 03:12:22;;;;;;;13.75;9.23;;;;;;;;;;1505416;39;20401;-59
2021/08/01 03:13:24;;;;;;;16.88;9.77;;;;;;;;;;1505736;39;20041;-59
2021/08/01 03:14:25;;;;;;;18.98;10.15;;;;;;;;;;1505611;39;20029;-59
2021/08/01 03:15:27;;;;;;;16.10;9.85;;;;;;;;;;1505562;39;20408;-59
2021/08/01 03:16:27;;;;;;;15.85;9.63;;;;;;;;;;1505723;39;20022;-61
2021/08/01 03:17:29;;;;;;;14.90;9.70;;;;;;;;;;1505613;39;20022;-59
2021/08/01 03:18:30;;;;;;;19.85;10.20;;;;;;;;;;1505551;39;20022;-59
2021/08/01 03:19:33;;;;;;;14.07;9.50;;;;;;;;;;1505680;39;20022;-60
2021/08/01 03:20:35;;;;;;;14.05;9.00;;;;;;;;;;1505546;39;20385;-61
2021/08/01 03:21:37;;;;;;;13.50;9.68;;;;;;;;;;1505768;39;20030;-61
2021/08/01 03:22:38;;;;;;;13.13;9.52;;;;;;;;;;1505534;39;20022;-60
2021/08/01 03:23:40;;;;;;;15.20;10.15;;;;;;;;;;1505699;39;20062;-61
2021/08/01 03:24:41;;;;;;;13.93;8.98;;;;;;;;;;1505705;39;20019;-59
2021/08/01 03:25:44;;;;;;;12.65;9.00;;;;;;;;;;1505618;39;20284;-60
2021/08/01 03:26:45;;;;;;;12.77;9.63;;;;;;;;;;1505582;39;20023;-59
2021/08/01 03:27:46;;;;;;;15.02;8.68;;;;;;;;;;1505728;39;20265;-59
2021/08/01 03:28:47;;;;;;;14.70;10.00;;;;;;;;;;1505659;39;20022;-59
2021/08/01 03:29:49;;;;;;;16.27;9.23;;;;;;;;;;1505551;39;20056;-61
2021/08/01 03:30:50;;;;;;;15.63;9.35;;;;;;;;;;1505528;39;20045;-59
2021/08/01 03:31:52;;;;;;;16.05;8.65;;;;;;;;;;1505515;39;20023;-60
2021/08/01 03:32:53;;;;;;;15.32;10.02;;;;;;;;;;1505543;39;20023;-59
2021/08/01 03:33:55;;;;;;;12.73;9.85;;;;;;;;;;1505759;39;20026;-60
2021/08/01 03:34:55;;;;;;;13.32;9.50;;;;;;;;;;1505578;39;20266;-59
2021/08/01 03:35:57;;;;;;;13.73;8.98;;;;;;;;;;1505617;39;20042;-59
2021/08/01 03:36:59;;;;;;;12.63;8.90;;;;;;;;;;1505700;39;20018;-59
2021/08/01 03:38:00;;;;;;;15.48;9.20;;;;;;;;;;1505493;39;20297;-60
2021/08/01 03:39:02;;;;;;;10.55;8.00;;;;;;;;;;1505572;39;20022;-61
2021/08/01 03:40:03;;;;;;;15.40;8.90;;;;;;;;;;1505563;39;20033;-61
2021/08/01 03:41:06;;;;;;;15.90;9.68;;;;;;;;;;1505698;39;20031;-61
2021/08/01 03:42:07;;;;;;;15.32;9.18;;;;;;;;;;1505499;39;20018;-59
2021/08/01 03:43:09;;;;;;;14.75;8.88;;;;;;;;;;1505558;39;20441;-61
2021/08/01 03:44:10;;;;;;;21.42;10.90;;;;;;;;;;1500626;39;20023;-59
2021/08/01 03:45:13;;;;;;;20.52;11.18;;;;;;;;;;1500753;39;20019;-60
2021/08/01 03:46:14;;;;;;;19.65;9.75;;;;;;;;;;1505491;39;20022;-59
2021/08/01 03:47:16;;;;;;;22.95;9.20;;;;;;;;;;1505568;39;20022;-60
2021/08/01 03:48:17;;;;;;;11.15;6.78;;;;;;;;;;1505509;39;20030;-60
2021/08/01 03:49:18;;;;;;;11.82;6.13;;;;;;;;;;1505565;39;20313;-60
2021/08/01 03:50:19;;;;;;;11.57;6.00;;;;;;;;;;1505435;39;20019;-60
2021/08/01 03:51:21;;;;;;;6.55;4.60;;;;;;;;;;1505513;39;20431;-60
2021/08/01 03:52:22;;;;;;;8.98;4.53;;;;;;;;;;1505474;39;20025;-60
2021/08/01 03:53:24;;;;;;;10.40;4.63;;;;;;;;;;1505520;39;20022;-60
2021/08/01 03:54:25;;;;;;;7.18;4.00;;;;;;;;;;1505452;39;20026;-60
2021/08/01 03:55:26;;;;;;;8.02;4.40;;;;;;;;;;1505401;39;20025;-60
2021/08/01 03:56:28;;;;;;;7.22;4.32;;;;;;;;;;1505462;39;20029;-60
2021/08/01 03:57:30;;;;;;;5.70;3.20;;;;;;;;;;1505414;39;20033;-60
2021/08/01 03:58:31;;;;;;;4.55;3.22;;;;;;;;;;1505432;39;20026;-59
2021/08/01 03:59:35;;;;;;;4.60;2.70;;;;;;;;;;1505592;39;20023;-60
2021/08/01 04:00:36;;;;;;;7.43;3.10;;;;;;;;;;1505600;39;20023;-59
2021/08/01 04:01:37;;;;;;;4.88;3.08;;;;;;;;;;1505594;39;20382;-59
2021/08/01 04:02:38;;;;;;;5.18;3.60;;;;;;;;;;1505381;39;20027;-61
2021/08/01 04:03:40;;;;;;;6.10;3.70;;;;;;;;;;1505456;39;20019;-60
2021/08/01 04:04:41;;;;;;;4.80;3.58;;;;;;;;;;1505578;39;20110;-60
2021/08/01 04:05:43;;;;;;;6.82;3.80;;;;;;;;;;1505499;39;20510;-61
2021/08/01 04:06:44;;;;;;;6.60;3.90;;;;;;;;;;1505444;39;20048;-60
2021/08/01 04:07:45;;;;;;;6.70;3.72;;;;;;;;;;1505489;39;20026;-59
2021/08/01 04:08:46;;;;;;;5.05;4.03;;;;;;;;;;1505411;39;20312;-60
2021/08/01 04:09:48;;;;;;;6.07;4.45;;;;;;;;;;1505398;39;20034;-61
2021/08/01 04:10:49;;;;;;;5.82;4.05;;;;;;;;;;1505398;39;20389;-59
2021/08/01 04:11:52;;;;;;;7.13;4.10;;;;;;;;;;1505663;39;20026;-59
2021/08/01 04:12:53;;;;;;;5.22;4.13;;;;;;;;;;1505517;39;20025;-60
2021/08/01 04:13:55;;;;;;;5.07;4.00;;;;;;;;;;1505468;39;20023;-59
2021/08/01 04:14:56;;;;;;;7.57;4.10;;;;;;;;;;1505367;39;20418;-59
2021/08/01 04:15:57;;;;;;;6.38;3.83;;;;;;;;;;1505550;39;20059;-58
2021/08/01 04:16:58;;;;;;;6.50;3.92;;;;;;;;;;1505418;39;20381;-59
2021/08/01 04:18:03;;;;;;;7.85;4.28;;;;;;;;;;1505593;39;20022;-59
2021/08/01 04:19:06;;;;;;;6.97;3.72;;;;;;;;;;1505392;39;20033;-61
2021/08/01 04:20:09;;;;;;;6.43;4.05;;;;;;;;;;1505525;39;20038;-59
2021/08/01 04:21:12;;;;;;;6.10;4.20;;;;;;;;;;1505405;39;20022;-59
2021/08/01 04:22:14;;;;;;;6.97;3.72;;;;;;;;;;1500508;39;20367;-60
2021/08/01 04:23:15;;;;;;;5.80;4.35;;;;;;;;;;1500662;39;20038;-59
2021/08/01 04:24:17;;;;;;;6.22;4.20;;;;;;;;;;1505536;39;20051;-60
2021/08/01 04:25:17;;;;;;;6.65;4.10;;;;;;;;;;1506077;39;20355;-59
2021/08/01 04:26:19;;;;;;;7.32;4.43;;;;;;;;;;1506071;39;20377;-59
2021/08/01 04:27:22;;;;;;;7.07;4.68;;;;;;;;;;1505994;39;20018;-61
2021/08/01 04:28:23;;;;;;;7.20;4.25;;;;;;;;;;1506076;39;20029;-61
2021/08/01 04:29:24;;;;;;;7.88;4.68;;;;;;;;;;1505983;39;20026;-60
2021/08/01 04:30:26;;;;;;;6.32;4.45;;;;;;;;;;1506119;39;20014;-60
2021/08/01 04:31:27;;;;;;;7.10;4.22;;;;;;;;;;1506085;39;20022;-60
2021/08/01 04:32:28;;;;;;;7.05;4.75;;;;;;;;;;1506128;39;20378;-60
2021/08/01 04:33:29;;;;;;;5.85;4.57;;;;;;;;;;1506044;39;20023;-60
2021/08/01 04:34:31;;;;;;;9.05;4.82;;;;;;;;;;1506072;39;20054;-61
2021/08/01 04:35:32;;;;;;;7.10;4.95;;;;;;;;;;1506018;39;20025;-60
2021/08/01 04:36:34;;;;;;;6.25;4.65;;;;;;;;;;1506095;39;20289;-60
2021/08/01 04:37:34;;;;;;;6.55;4.57;;;;;;;;;;1506005;39;20022;-60
2021/08/01 04:38:36;;;;;;;6.95;5.30;;;;;;;;;;1506214;39;20025;-59
2021/08/01 04:39:37;;;;;;;7.35;4.90;;;;;;;;;;1505990;39;20289;-61
2021/08/01 04:40:39;;;;;;;6.60;4.90;;;;;;;;;;1506136;39;20026;-60
2021/08/01 04:41:40;;;;;;;8.30;5.05;;;;;;;;;;1506063;39;20090;-59
2021/08/01 04:42:43;;;;;;;8.85;5.13;;;;;;;;;;1506073;39;20037;-59
2021/08/01 04:43:44;;;;;;;7.75;5.10;;;;;;;;;;1506067;39;20030;-59
2021/08/01 04:44:46;;;;;;;8.15;5.18;;;;;;;;;;1506204;39;20027;-59
2021/08/01 04:45:47;;;;;;;6.18;4.60;;;;;;;;;;1506000;39;20029;-59
2021/08/01 04:46:49;;;;;;;6.57;4.78;;;;;;;;;;1505936;39;20313;-59
2021/08/01 04:47:49;;;;;;;6.43;4.47;;;;;;;;;;1506115;39;20102;-60
2021/08/01 04:48:51;;;;;;;7.22;4.85;;;;;;;;;;1506022;39;20470;-61
2021/08/01 04:49:52;;;;;;;6.80;5.00;;;;;;;;;;1506077;39;20049;-60
2021/08/01 04:50:54;;;;;;;5.82;4.43;;;;;;;;;;1506040;39;20029;-59
2021/08/01 04:51:55;;;;;;;10.00;4.35;;;;;;;;;;1506038;39;20027;-59
2021/08/01 04:52:56;;;;;;;6.35;4.28;;;;;;;;;;1506041;39;20029;-59
2021/08/01 04:53:57;;;;;;;7.32;4.85;;;;;;;;;;1506032;39;20019;-60
2021/08/01 04:54:59;;;;;;;5.80;4.32;;;;;;;;;;1506032;39;20045;-60
2021/08/01 04:56:00;;;;;;;6.28;4.10;;;;;;;;;;1505954;39;20023;-59
2021/08/01 04:57:02;;;;;;;7.20;4.40;;;;;;;;;;1506002;39;20030;-59
2021/08/01 04:58:04;;;;;;;7.05;4.75;;;;;;;;;;1506024;39;20018;-61
2021/08/01 04:59:06;;;;;;;7.25;4.57;;;;;;;;;;1506152;39;20049;-59
2021/08/01 05:00:08;;;;;;;5.63;4.20;;;;;;;;;;1505978;39;20061;-59
2021/08/01 05:01:11;;;;;;;5.60;4.03;;;;;;;;;;1505930;39;20102;-60
2021/08/01 05:02:12;;;;;;;5.45;3.88;;;;;;;;;;1505979;39;20377;-59
2021/08/01 05:03:14;;;;;;;7.57;3.97;;;;;;;;;;1506121;39;20029;-59
2021/08/01 05:04:14;;;;;;;6.25;3.60;;;;;;;;;;1506111;39;20033;-60
2021/08/01 05:05:17;;;;;;;6.45;3.85;;;;;;;;;;1506095;39;20381;-61
2021/08/01 05:06:18;;;;;;;5.03;3.72;;;;;;;;;;1505959;39;20291;-61
2021/08/01 05:07:19;;;;;;;6.05;4.00;;;;;;;;;;1506063;39;20018;-59
2021/08/01 05:08:20;;;;;;;5.43;3.53;;;;;;;;;;1506011;39;20023;-59
2021/08/01 05:09:23;;;;;;;5.47;3.28;;;;;;;;;;1505956;39;20034;-60
2021/08/01 05:10:24;;;;;;;5.10;3.45;;;;;;;;;;1505894;39;20023;-61
2021/08/01 05:11:25;;;;;;;4.88;3.50;;;;;;;;;;1506267;39;20025;-59
2021/08/01 05:12:27;;;;;;;5.35;3.55;;;;;;;;;;1505912;39;20286;-61
2021/08/01 05:13:30;;;;;;;5.32;3.70;;;;;;;;;;1506011;39;20026;-60
2021/08/01 05:14:31;;;;;;;5.47;3.20;;;;;;;;;;1505992;39;20049;-60
2021/08/01 05:15:32;;;;;;;6.00;3.30;;;;;;;;;;1505984;39;20066;-61
2021/08/01 05:16:33;;;;;;;7.22;3.25;;;;;;;;;;1505982;39;20019;-60
2021/08/01 05:17:35;;;;;;;5.32;3.33;;;;;;;;;;1506166;39;20034;-60
2021/08/01 05:18:36;;;;;;;4.30;3.42;;;;;;;;;;1506186;39;20022;-61
2021/08/01 05:19:39;;;;;;;7.13;3.10;;;;;;;;;;1505966;39;20404;-60
2021/08/01 05:20:41;;;;;;;5.72;3.25;;;;;;;;;;1505889;39;20441;-61
2021/08/01 05:21:43;;;;;;;6.40;3.63;;;;;;;;;;1506107;39;20026;-61
2021/08/01 05:22:44;;;;;;;5.57;3.22;;;;;;;;;;1506024;39;20022;-60
2021/08/01 05:23:45;;;;;;;4.13;3.00;;;;;;;;;;1506104;39;20295;-59
2021/08/01 05:24:46;;;;;;;6.07;3.55;;;;;;;;;;1505899;39;20029;-61
2021/08/01 05:25:48;;;;;;;5.25;3.38;;;;;;;;;;1505960;39;20030;-60
2021/08/01 05:26:49;;;;;;;6.18;3.30;;;;;;;;;;1505907;39;20045;-61
2021/08/01 05:27:51;;;;;;;5.88;3.78;;;;;;;;;;1505897;39;20042;-60
2021/08/01 05:28:53;;;;;;;5.75;3.20;;;;;;;;;;1505911;39;20022;-60
2021/08/01 05:29:55;;;;;;;6.20;3.50;;;;;;;;;;1505842;39;20046;-61
2021/08/01 05:30:55;;;;;;;4.82;3.50;;;;;;;;;;1505851;39;20042;-61
2021/08/01 05:31:57;;;;;;;8.75;3.42;;;;;;;;;;1505826;39;20318;-61
2021/08/01 05:33:03;;;;;;;4.70;3.60;;;;;;;;;;1505836;39;20023;-59
2021/08/01 05:34:04;;;;;;;5.50;3.40;;;;;;;;;;1505941;39;20015;-61
2021/08/01 05:35:07;;;;;;;5.60;3.63;;;;;;;;;;1505610;39;20273;-59
2021/08/01 05:36:09;;;;;;;5.72;3.33;;;;;;;;;;1506045;39;20144;-61
2021/08/01 05:37:10;;;;;;;8.75;3.50;;;;;;;;;;1505948;39;20041;-61
2021/08/01 05:38:12;;;;;;;3.83;2.90;;;;;;;;;;1506115;39;20031;-60
2021/08/01 05:39:13;;;;;;;5.47;3.45;;;;;;;;;;1505814;39;20031;-61
2021/08/01 05:40:15;;;;;;;5.35;3.35;;;;;;;;;;1505832;39;20026;-61
2021/08/01 05:41:16;;;;;;;6.07;3.13;;;;;;;;;;1505815;39;20023;-62
2021/08/01 05:42:18;;;;;;;6.30;3.42;;;;;;;;;;1505984;39;20018;-61
2021/08/01 05:43:19;;;;;;;6.07;3.35;;;;;;;;;;1505844;39;20027;-59
2021/08/01 05:44:22;;;;;;;6.18;3.45;;;;;;;;;;1506095;39;20022;-60
2021/08/01 05:45:23;;;;;;;6.20;3.40;;;;;;;;;;1505819;39;20023;-61
2021/08/01 05:46:24;;;;;;;6.05;3.25;;;;;;;;;;1505883;39;20058;-61
2021/08/01 05:47:25;;;;;;;6.00;3.55;;;;;;;;;;1501042;39;20030;-61
2021/08/01 05:48:27;;;;;;;7.07;3.58;;;;;;;;;;1501159;39;20320;-60
2021/08/01 05:49:28;;;;;;;5.25;3.58;;;;;;;;;;1501011;39;20023;-61
2021/08/01 05:50:30;;;;;;;5.93;3.60;;;;;;;;;;1501257;39;20063;-59
2021/08/01 05:51:31;;;;;;;7.47;3.75;;;;;;;;;;1505829;39;20078;-60
2021/08/01 05:52:32;;;;;;;4.53;3.55;;;;;;;;;;1505826;39;20031;-60
2021/08/01 05:53:34;;;;;;;8.10;3.65;;;;;;;;;;1505856;39;20029;-60
2021/08/01 05:54:36;;;;;;;6.35;3.90;;;;;;;;;;1505908;39;20014;-60
2021/08/01 05:55:36;;;;;;;6.05;3.67;;;;;;;;;;1505803;39;20386;-59
2021/08/01 05:56:38;;;;;;;5.63;3.70;;;;;;;;;;1505988;39;20157;-61
2021/08/01 05:57:39;;;;;;;7.28;3.85;;;;;;;;;;1505766;39;20023;-61
2021/08/01 05:58:42;;;;;;;5.65;3.88;;;;;;;;;;1505841;39;20027;-60
2021/08/01 05:59:44;;;;;;;6.75;3.97;;;;;;;;;;1505756;39;20049;-61
2021/08/01 06:00:46;;;;;;;7.72;3.78;;;;;;;;;;1505881;39;20026;-61
2021/08/01 06:01:46;;;;;;;5.47;3.70;;;;;;;;;;1505780;39;20409;-59
2021/08/01 06:02:48;;;;;;;6.47;3.63;;;;;;;;;;1505862;39;20022;-61
2021/08/01 06:03:49;;;;;;;5.60;3.88;;;;;;;;;;1505867;39;20033;-61
2021/08/01 06:04:51;;;;;;;7.55;3.97;;;;;;;;;;1505851;39;20054;-59
2021/08/01 06:05:51;;;;;;;5.72;4.10;;;;;;;;;;1505749;39;20026;-60
2021/08/01 06:06:53;;;;;;;6.32;4.00;;;;;;;;;;1500932;39;20418;-59
2021/08/01 06:07:54;;;;;;;5.57;3.97;;;;;;;;;;1501002;39;20023;-59
2021/08/01 06:08:57;;;;;;;5.32;3.55;;;;;;;;;;1506000;39;20030;-59
2021/08/01 06:09:57;;;;;;;5.53;3.90;;;;;;;;;;1505762;39;20041;-60
2021/08/01 06:10:59;;;;;;;7.70;4.03;;;;;;;;;;1505867;39;20067;-60
2021/08/01 06:12:00;;;;;;;6.22;4.10;;;;;;;;;;1505787;39;20018;-59